Time;durP1;ratioP1;P1;durP2;ratioP2;P2;SDS_P1;SDS_P2;PMS_P1;PMS_P2;Temp;Humidity;BMP_temperature;BMP_pressure;BME280_temperature;BME280_humidity;BME280_pressure;Samples;Min_cycle;Max_cycle;Signal;HPM_P1;HPM_P2
2021/12/24 00:02:15;;;;;;;3.73;1.80;;;18.90;47.40;;;;;;5013670;28;20193;-24
2021/12/24 00:04:41;;;;;;;2.23;1.60;;;18.90;47.40;;;;;;5011969;28;20590;-23
2021/12/24 00:07:07;;;;;;;2.50;1.90;;;18.90;47.50;;;;;;5012694;28;20209;-24
2021/12/24 00:09:34;;;;;;;2.77;1.80;;;18.80;47.60;;;;;;5013853;28;20220;-21
2021/12/24 00:12:04;;;;;;;2.50;1.70;;;18.80;47.60;;;;;;5013230;28;20216;-20
2021/12/24 00:14:31;;;;;;;2.10;1.90;;;18.70;47.70;;;;;;5013783;28;20197;-24
2021/12/24 00:17:01;;;;;;;2.37;1.90;;;18.70;47.70;;;;;;5014537;28;20577;-23
2021/12/24 00:19:45;;;;;;;2.80;1.90;;;18.70;47.80;;;;;;5011836;28;20228;-22
2021/12/24 00:23:02;;;;;;;2.93;2.07;;;18.60;47.90;;;;;;5013349;28;20205;-23
2021/12/24 00:36:02;;;;;;;2.00;1.80;;;18.50;48.20;;;;;;5014419;28;20204;-22
2021/12/24 00:38:27;;;;;;;2.37;1.80;;;18.50;48.20;;;;;;5013450;28;20194;-20
2021/12/24 00:40:55;;;;;;;2.23;1.70;;;18.50;48.20;;;;;;5016788;28;20197;-21
2021/12/24 00:43:21;;;;;;;2.43;1.90;;;18.40;48.20;;;;;;5018051;28;20471;-25
2021/12/24 00:45:49;;;;;;;3.70;1.80;;;18.40;48.30;;;;;;5015644;28;20503;-22
2021/12/24 00:48:17;;;;;;;2.00;1.80;;;18.40;48.40;;;;;;5016054;28;20315;-22
2021/12/24 00:55:59;;;;;;;2.03;1.70;;;18.30;48.50;;;;;;5017885;28;20313;-22
2021/12/24 00:58:25;;;;;;;1.77;1.53;;;18.30;48.50;;;;;;5017140;28;20193;-21
2021/12/24 01:00:51;;;;;;;2.33;1.70;;;18.30;48.60;;;;;;5017170;28;20500;-22
2021/12/24 01:03:17;;;;;;;1.87;1.70;;;18.30;48.60;;;;;;5016875;28;20202;-24
2021/12/24 01:05:43;;;;;;;2.73;1.63;;;18.30;48.70;;;;;;5016959;28;20221;-22
2021/12/24 01:08:10;;;;;;;2.43;1.93;;;18.20;48.70;;;;;;5016094;28;20227;-20
2021/12/24 01:10:41;;;;;;;2.50;1.87;;;18.20;48.70;;;;;;5014679;28;20229;-22
2021/12/24 01:13:08;;;;;;;1.57;1.47;;;18.20;48.80;;;;;;5013218;28;20414;-23
2021/12/24 01:15:38;;;;;;;2.43;1.67;;;18.20;48.80;;;;;;5016396;28;20358;-22
2021/12/24 01:18:16;;;;;;;2.00;1.60;;;18.20;48.90;;;;;;5016163;28;20287;-24
2021/12/24 01:20:47;;;;;;;1.87;1.60;;;18.20;48.90;;;;;;5016701;28;20189;-23
2021/12/24 01:26:05;;;;;;;2.80;1.80;;;18.10;49.00;;;;;;5017415;28;20187;-20
2021/12/24 01:29:05;;;;;;;1.70;1.60;;;18.10;49.00;;;;;;5016471;28;20200;-23
2021/12/24 01:39:54;;;;;;;1.40;1.30;;;18.10;49.20;;;;;;5016812;28;20237;-22
2021/12/24 01:45:32;;;;;;;1.50;1.40;;;18.00;49.30;;;;;;5016480;28;20615;-19
2021/12/24 01:48:09;;;;;;;1.80;1.63;;;18.00;49.30;;;;;;5015834;28;20274;-25
2021/12/24 01:50:37;;;;;;;1.80;1.70;;;18.00;49.40;;;;;;4996044;28;20305;-21
2021/12/24 01:53:06;;;;;;;1.60;1.50;;;18.00;49.50;;;;;;5015350;28;20224;-22
2021/12/24 01:55:32;;;;;;;1.80;1.50;;;18.00;49.90;;;;;;5015237;28;20190;-23
2021/12/24 01:57:58;;;;;;;1.97;1.77;;;17.90;49.50;;;;;;5014733;28;20544;-23
2021/12/24 02:00:33;;;;;;;1.93;1.50;;;17.90;49.60;;;;;;5016541;28;20227;-23
2021/12/24 02:02:59;;;;;;;1.43;1.33;;;17.90;49.60;;;;;;5016014;28;20213;-23
2021/12/24 02:05:25;;;;;;;1.70;1.60;;;17.90;49.70;;;;;;5014763;28;20762;-22
2021/12/24 02:07:52;;;;;;;3.03;1.60;;;17.90;49.70;;;;;;5016334;28;20588;-23
2021/12/24 02:10:19;;;;;;;1.97;1.77;;;17.90;49.80;;;;;;5016691;28;20541;-22
2021/12/24 02:12:46;;;;;;;2.47;1.40;;;17.90;49.80;;;;;;5016268;28;20200;-21
2021/12/24 02:15:23;;;;;;;1.80;1.70;;;17.90;49.90;;;;;;5015802;28;20249;-22
2021/12/24 02:18:14;;;;;;;2.37;1.67;;;17.80;49.80;;;;;;5013664;28;20180;-20
2021/12/24 02:28:53;;;;;;;1.57;1.40;;;17.80;50.10;;;;;;5015632;28;20271;-23
2021/12/24 02:31:25;;;;;;;1.70;1.30;;;17.80;50.10;;;;;;5015694;28;20443;-21
2021/12/24 02:33:51;;;;;;;1.63;1.30;;;17.80;50.10;;;;;;5014307;28;20406;-23
2021/12/24 02:36:18;;;;;;;2.37;1.40;;;17.70;50.10;;;;;;5016496;28;20574;-22
2021/12/24 02:38:44;;;;;;;1.60;1.50;;;17.70;50.20;;;;;;5013526;28;20199;-23
2021/12/24 02:41:10;;;;;;;1.50;1.30;;;17.70;50.20;;;;;;5013893;28;20257;-25
2021/12/24 02:43:37;;;;;;;1.43;1.23;;;17.70;50.30;;;;;;5014589;28;20197;-22
2021/12/24 02:46:09;;;;;;;1.57;1.47;;;17.70;50.30;;;;;;5014381;28;20200;-23
2021/12/24 02:54:06;;;;;;;1.57;1.30;;;17.70;50.40;;;;;;5016251;28;20203;-22
2021/12/24 02:56:36;;;;;;;1.50;1.40;;;17.70;50.50;;;;;;5016053;28;20192;-23
2021/12/24 02:59:04;;;;;;;1.50;1.30;;;17.60;50.50;;;;;;5015756;28;20191;-21
2021/12/24 03:01:34;;;;;;;1.50;1.40;;;17.60;50.60;;;;;;5014784;28;20193;-20
2021/12/24 03:04:00;;;;;;;1.97;1.70;;;17.60;50.70;;;;;;5015314;28;20216;-24
2021/12/24 03:06:30;;;;;;;1.57;1.47;;;17.60;50.70;;;;;;5013298;28;20201;-24
2021/12/24 03:08:56;;;;;;;1.93;1.50;;;17.60;50.70;;;;;;5014832;28;20282;-23
2021/12/24 03:11:22;;;;;;;1.87;1.67;;;17.60;50.70;;;;;;5014075;28;20499;-20
2021/12/24 03:13:49;;;;;;;1.80;1.60;;;17.60;50.80;;;;;;5015456;28;20569;-22
2021/12/24 03:16:15;;;;;;;1.37;1.27;;;17.60;51.20;;;;;;5016335;28;20208;-20
2021/12/24 03:18:43;;;;;;;1.83;1.50;;;17.60;50.90;;;;;;5015560;28;20571;-21
2021/12/24 03:21:16;;;;;;;1.60;1.50;;;17.60;50.90;;;;;;5015228;28;20199;-19
2021/12/24 03:26:26;;;;;;;1.40;1.30;;;17.60;51.00;;;;;;5013513;28;20269;-21
2021/12/24 03:28:52;;;;;;;2.90;1.40;;;17.50;51.00;;;;;;5014720;28;20522;-22
2021/12/24 03:31:18;;;;;;;2.00;1.60;;;17.50;51.10;;;;;;5014577;28;20216;-22
2021/12/24 03:33:43;;;;;;;1.63;1.40;;;17.50;51.10;;;;;;5015788;28;20466;-20
2021/12/24 03:36:09;;;;;;;1.37;1.27;;;17.50;51.10;;;;;;5015289;28;20198;-22
2021/12/24 03:38:35;;;;;;;1.93;1.40;;;17.50;51.20;;;;;;5015854;28;20207;-22
2021/12/24 03:41:01;;;;;;;1.50;1.37;;;17.50;51.20;;;;;;5015590;28;20471;-19
2021/12/24 03:43:27;;;;;;;1.40;1.30;;;17.50;51.30;;;;;;5015224;28;20285;-22
2021/12/24 03:48:28;;;;;;;1.67;1.20;;;17.40;51.30;;;;;;5014637;28;20201;-22
2021/12/24 03:51:07;;;;;;;1.67;1.57;;;17.40;51.40;;;;;;5012846;28;20232;-22
2021/12/24 03:56:16;;;;;;;1.60;1.47;;;17.40;51.60;;;;;;5014707;28;20204;-22
2021/12/24 03:58:43;;;;;;;1.60;1.50;;;17.40;51.60;;;;;;5015393;28;20194;-23
2021/12/24 04:01:09;;;;;;;1.57;1.47;;;18.20;51.40;;;;;;5014947;28;20202;-19
2021/12/24 04:03:35;;;;;;;1.70;1.57;;;20.30;48.10;;;;;;5015435;28;20179;-22
2021/12/24 04:06:01;;;;;;;2.20;1.30;;;20.80;46.60;;;;;;5014826;28;20223;-25
2021/12/24 04:08:27;;;;;;;1.30;1.20;;;21.20;45.90;;;;;;5013900;28;20228;-20
2021/12/24 04:10:53;;;;;;;1.63;1.20;;;21.60;45.30;;;;;;5012979;28;20225;-22
2021/12/24 04:13:19;;;;;;;1.50;1.40;;;21.90;44.70;;;;;;5012315;28;20202;-20
2021/12/24 04:15:44;;;;;;;1.83;1.47;;;22.20;44.40;;;;;;5013452;28;20268;-22
2021/12/24 04:18:19;;;;;;;1.77;1.57;;;22.70;43.90;;;;;;5013805;28;20558;-23
2021/12/24 04:26:13;;;;;;;1.70;1.50;;;23.10;43.00;;;;;;5014773;28;20718;-23
2021/12/24 04:28:40;;;;;;;1.50;1.40;;;23.20;43.10;;;;;;5013873;28;20574;-26
2021/12/24 04:31:05;;;;;;;1.97;1.70;;;23.30;43.00;;;;;;5013903;28;20221;-21
2021/12/24 04:33:36;;;;;;;1.40;1.30;;;23.50;42.80;;;;;;5013216;28;20201;-23
2021/12/24 04:53:08;;;;;;;1.97;1.60;;;23.60;42.70;;;;;;5014261;28;20228;-22
2021/12/24 05:03:23;;;;;;;1.80;1.70;;;23.00;43.40;;;;;;5014249;28;20200;-23
2021/12/24 05:05:53;;;;;;;2.00;1.70;;;22.90;43.60;;;;;;5014597;28;20251;-24
2021/12/24 05:08:22;;;;;;;2.70;1.70;;;22.70;43.80;;;;;;5013482;28;20304;-20
2021/12/24 05:10:51;;;;;;;2.03;1.83;;;22.50;44.10;;;;;;5014656;28;20220;-22
2021/12/24 05:13:19;;;;;;;2.20;2.00;;;22.40;44.70;;;;;;5012983;28;20177;-21
2021/12/24 05:15:48;;;;;;;2.23;1.67;;;22.10;44.50;;;;;;5013557;28;20189;-25
2021/12/24 05:18:47;;;;;;;2.13;1.60;;;21.90;44.80;;;;;;5014927;28;20671;-23
2021/12/24 05:23:57;;;;;;;3.07;1.80;;;21.30;45.50;;;;;;5014295;28;20617;-23
2021/12/24 05:26:23;;;;;;;2.10;1.70;;;21.00;45.90;;;;;;5017065;28;20207;-22
2021/12/24 05:28:48;;;;;;;2.60;1.53;;;20.80;46.20;;;;;;5017206;28;20229;-23
2021/12/24 05:31:14;;;;;;;2.10;1.90;;;20.60;46.60;;;;;;5017320;28;20210;-22
2021/12/24 05:33:40;;;;;;;2.17;1.77;;;20.50;46.90;;;;;;5016421;28;20171;-22
2021/12/24 05:36:06;;;;;;;1.93;1.80;;;20.30;47.20;;;;;;5015690;28;20192;-22
2021/12/24 05:38:31;;;;;;;2.57;1.90;;;20.20;47.50;;;;;;5017077;28;20198;-21
2021/12/24 05:40:57;;;;;;;1.80;1.70;;;20.10;47.70;;;;;;5016052;28;20785;-24
2021/12/24 05:43:23;;;;;;;2.27;1.87;;;20.00;47.90;;;;;;5015764;28;20228;-24
2021/12/24 05:45:49;;;;;;;1.80;1.70;;;20.00;48.10;;;;;;5016728;28;20194;-23
2021/12/24 05:48:15;;;;;;;2.37;1.90;;;20.00;48.20;;;;;;5016544;28;20204;-22
2021/12/24 05:50:40;;;;;;;2.00;1.80;;;20.00;48.20;;;;;;5015844;28;20230;-23
2021/12/24 05:53:06;;;;;;;2.07;1.80;;;20.10;48.10;;;;;;5017563;28;20195;-23
2021/12/24 05:55:32;;;;;;;1.90;1.80;;;20.30;47.80;;;;;;5015928;28;20298;-25
2021/12/24 05:57:57;;;;;;;2.30;1.80;;;20.80;47.40;;;;;;5013591;28;20304;-22
2021/12/24 06:00:23;;;;;;;2.00;1.80;;;21.60;46.50;;;;;;5013820;28;20206;-22
2021/12/24 06:02:49;;;;;;;1.97;1.77;;;22.40;45.40;;;;;;5015110;28;20229;-21
2021/12/24 06:05:15;;;;;;;2.20;1.70;;;22.70;44.60;;;;;;5015868;28;20224;-21
2021/12/24 06:07:41;;;;;;;1.80;1.67;;;22.90;44.20;;;;;;5016393;28;20193;-21
2021/12/24 06:10:07;;;;;;;1.93;1.73;;;23.10;44.00;;;;;;5015378;28;20492;-22
2021/12/24 06:12:33;;;;;;;2.20;1.70;;;23.40;43.60;;;;;;5016518;28;20511;-22
2021/12/24 06:15:04;;;;;;;2.20;1.97;;;23.50;43.40;;;;;;5015846;28;20201;-22
2021/12/24 06:17:30;;;;;;;2.07;1.87;;;23.60;43.30;;;;;;5013910;28;20204;-22
2021/12/24 06:19:55;;;;;;;2.00;1.80;;;23.50;43.30;;;;;;5015308;28;20194;-22
2021/12/24 06:22:21;;;;;;;2.30;1.97;;;23.40;43.40;;;;;;5014871;28;20661;-22
2021/12/24 06:24:46;;;;;;;2.03;1.77;;;23.30;43.40;;;;;;5015257;28;20196;-22
2021/12/24 06:27:12;;;;;;;1.77;1.63;;;23.20;43.50;;;;;;5015046;28;20290;-23
2021/12/24 06:29:38;;;;;;;2.20;2.00;;;23.20;43.70;;;;;;5014628;28;20228;-22
2021/12/24 06:32:04;;;;;;;2.33;1.93;;;23.10;43.80;;;;;;5014675;28;20518;-22
2021/12/24 06:34:31;;;;;;;3.10;2.10;;;22.90;43.90;;;;;;5015451;28;20199;-23
2021/12/24 06:36:58;;;;;;;2.23;2.00;;;22.80;44.00;;;;;;5014263;28;20335;-21
2021/12/24 06:39:24;;;;;;;2.43;2.00;;;22.60;44.30;;;;;;5015966;28;20295;-22
2021/12/24 06:41:49;;;;;;;3.23;2.20;;;22.50;44.60;;;;;;5014014;28;20291;-23
2021/12/24 06:44:15;;;;;;;2.77;2.10;;;22.30;44.70;;;;;;5013912;28;20201;-21
2021/12/24 06:46:42;;;;;;;2.00;1.80;;;22.10;44.90;;;;;;5011729;28;20201;-21
2021/12/24 06:49:10;;;;;;;2.50;2.30;;;21.80;45.20;;;;;;5012909;28;20193;-22
2021/12/24 06:51:36;;;;;;;2.37;1.90;;;21.50;45.60;;;;;;5014463;28;20223;-22
2021/12/24 06:54:02;;;;;;;2.40;2.10;;;21.30;46.00;;;;;;5014121;28;20207;-21
2021/12/24 06:56:28;;;;;;;2.37;2.17;;;21.10;46.30;;;;;;5013997;28;20210;-21
2021/12/24 06:58:54;;;;;;;2.93;2.10;;;20.90;46.60;;;;;;5014187;28;20204;-21
2021/12/24 07:01:20;;;;;;;2.40;2.20;;;20.70;47.20;;;;;;5014773;28;20186;-22
2021/12/24 07:03:45;;;;;;;2.30;2.10;;;20.60;47.10;;;;;;5012929;28;20244;-21
2021/12/24 07:06:11;;;;;;;3.73;2.03;;;20.50;47.30;;;;;;5013855;28;20207;-21
2021/12/24 07:08:37;;;;;;;2.43;1.77;;;20.40;47.60;;;;;;5012185;28;20197;-22
2021/12/24 07:11:04;;;;;;;2.90;2.17;;;20.30;47.80;;;;;;5013976;28;20228;-22
2021/12/24 07:13:30;;;;;;;2.30;2.03;;;20.30;47.90;;;;;;5014231;28;20485;-22
2021/12/24 07:15:55;;;;;;;3.17;2.27;;;20.30;47.90;;;;;;5013632;28;20675;-22
2021/12/24 07:18:22;;;;;;;3.23;2.40;;;20.30;47.80;;;;;;5013262;28;20633;-25
2021/12/24 07:20:48;;;;;;;2.30;2.00;;;20.40;47.80;;;;;;5014991;28;20198;-25
2021/12/24 07:23:14;;;;;;;2.77;2.00;;;20.70;47.60;;;;;;5012546;28;20206;-22
2021/12/24 07:25:39;;;;;;;2.87;2.07;;;20.90;47.40;;;;;;5013770;28;20270;-21
2021/12/24 07:28:06;;;;;;;2.57;2.03;;;21.30;46.80;;;;;;5012678;28;20197;-22
2021/12/24 07:30:32;;;;;;;2.07;1.87;;;21.80;46.20;;;;;;5012783;28;20220;-23
2021/12/24 07:32:58;;;;;;;2.30;2.07;;;22.40;45.50;;;;;;5011878;28;21399;-21
2021/12/24 07:35:24;;;;;;;2.40;2.17;;;22.90;44.60;;;;;;5013263;28;20606;-23
2021/12/24 07:37:50;;;;;;;2.80;2.37;;;23.20;44.10;;;;;;5014063;28;20197;-22
2021/12/24 07:40:17;;;;;;;2.23;1.90;;;23.30;43.80;;;;;;5014250;28;20196;-23
2021/12/24 07:42:45;;;;;;;2.50;2.23;;;23.40;43.60;;;;;;5013594;28;20196;-23
2021/12/24 07:45:11;;;;;;;2.50;2.10;;;23.40;43.60;;;;;;5012206;28;20197;-22
2021/12/24 07:47:41;;;;;;;2.70;2.10;;;23.50;43.60;;;;;;5011465;28;20216;-23
2021/12/24 07:52:42;;;;;;;2.50;2.23;;;23.60;43.40;;;;;;5011799;28;20196;-23
2021/12/24 07:55:10;;;;;;;3.47;2.20;;;23.40;43.60;;;;;;5009293;28;20208;-21
2021/12/24 07:57:37;;;;;;;3.03;2.23;;;23.30;43.70;;;;;;5012769;28;20185;-22
2021/12/24 08:00:08;;;;;;;2.90;2.10;;;23.10;43.80;;;;;;5013174;28;20261;-22
2021/12/24 08:02:33;;;;;;;3.93;2.10;;;22.90;44.00;;;;;;5012599;28;20301;-23
2021/12/24 08:04:59;;;;;;;2.60;2.17;;;22.80;44.30;;;;;;5011449;28;20599;-22
2021/12/24 08:07:27;;;;;;;3.20;2.20;;;22.50;44.40;;;;;;5012745;28;20185;-23
2021/12/24 08:09:53;;;;;;;2.50;2.00;;;22.40;44.80;;;;;;5012786;28;20278;-23
2021/12/24 08:12:20;;;;;;;3.13;1.90;;;22.10;45.00;;;;;;5010448;28;20487;-22
2021/12/24 08:14:46;;;;;;;4.07;2.33;;;21.90;45.40;;;;;;5009511;28;20468;-21
2021/12/24 08:17:12;;;;;;;2.60;1.90;;;21.50;45.70;;;;;;5011271;28;20620;-22
2021/12/24 08:19:38;;;;;;;4.00;2.50;;;21.20;46.10;;;;;;5011395;28;20590;-22
2021/12/24 08:22:05;;;;;;;3.70;2.10;;;21.00;46.50;;;;;;5006472;28;20208;-24
2021/12/24 08:24:31;;;;;;;3.20;2.10;;;20.90;46.90;;;;;;5010234;28;20195;-22
2021/12/24 08:26:57;;;;;;;3.87;2.30;;;20.70;47.20;;;;;;5010736;28;20331;-21
2021/12/24 08:29:23;;;;;;;2.07;1.87;;;20.50;47.50;;;;;;5012095;28;20304;-23
2021/12/24 08:31:52;;;;;;;5.00;2.30;;;20.40;47.80;;;;;;5010738;28;20365;-23
2021/12/24 08:34:19;;;;;;;2.97;2.17;;;20.30;48.10;;;;;;5011980;28;20230;-23
2021/12/24 08:36:47;;;;;;;2.57;2.10;;;20.20;48.30;;;;;;5011242;28;20219;-23
2021/12/24 08:39:13;;;;;;;9.47;2.00;;;20.10;48.50;;;;;;5011731;28;20285;-22
2021/12/24 08:41:39;;;;;;;3.97;2.13;;;20.10;48.80;;;;;;5010010;28;20200;-22
2021/12/24 08:44:06;;;;;;;2.10;1.93;;;20.30;48.70;;;;;;5010470;28;20195;-21
2021/12/24 08:46:33;;;;;;;3.63;2.20;;;20.60;48.30;;;;;;5011915;28;20394;-23
2021/12/24 08:48:59;;;;;;;2.03;1.80;;;21.20;47.60;;;;;;5010132;28;20191;-23
2021/12/24 08:51:24;;;;;;;3.40;2.50;;;21.80;46.70;;;;;;5011456;28;20222;-20
2021/12/24 08:53:51;;;;;;;3.07;2.13;;;22.50;46.00;;;;;;5010854;28;20184;-24
2021/12/24 08:56:16;;;;;;;3.30;2.10;;;23.00;45.20;;;;;;5010921;28;20211;-22
2021/12/24 08:58:42;;;;;;;3.23;2.27;;;23.30;44.60;;;;;;5010467;28;20212;-22
2021/12/24 09:01:08;;;;;;;3.50;2.20;;;23.20;44.50;;;;;;5013452;28;20553;-25
2021/12/24 09:03:33;;;;;;;2.30;1.93;;;23.10;44.60;;;;;;5015049;28;20606;-22
2021/12/24 09:05:59;;;;;;;3.33;2.20;;;22.80;44.90;;;;;;5013531;28;20421;-24
2021/12/24 09:08:25;;;;;;;4.23;2.23;;;22.60;45.10;;;;;;5013200;28;20216;-23
2021/12/24 09:10:51;;;;;;;4.00;2.27;;;22.40;45.40;;;;;;5014235;28;20653;-21
2021/12/24 09:13:16;;;;;;;4.90;2.30;;;22.10;46.30;;;;;;5013037;28;20201;-22
2021/12/24 09:15:42;;;;;;;5.77;2.43;;;21.90;46.40;;;;;;5012702;28;20260;-21
2021/12/24 09:18:08;;;;;;;4.53;2.33;;;21.70;46.70;;;;;;5015056;28;20523;-22
2021/12/24 09:20:39;;;;;;;2.53;1.90;;;21.60;46.90;;;;;;5012566;28;20201;-22
2021/12/24 09:23:07;;;;;;;3.33;2.10;;;21.70;46.90;;;;;;5013199;28;20562;-21
2021/12/24 09:25:33;;;;;;;4.03;2.20;;;21.80;46.70;;;;;;5011119;28;20476;-22
2021/12/24 09:28:00;;;;;;;3.83;2.00;;;21.90;46.50;;;;;;5013365;28;20183;-21
2021/12/24 09:30:27;;;;;;;4.57;2.20;;;22.00;46.40;;;;;;5012350;28;20259;-21
2021/12/24 09:32:53;;;;;;;3.33;2.17;;;22.10;46.20;;;;;;5011773;28;20195;-23
2021/12/24 09:35:20;;;;;;;5.80;2.23;;;22.20;46.10;;;;;;5012553;28;20272;-22
2021/12/24 09:37:47;;;;;;;4.50;2.27;;;22.40;45.90;;;;;;5013122;28;20188;-22
2021/12/24 09:40:15;;;;;;;6.43;2.30;;;22.40;45.80;;;;;;5013040;28;20291;-21
2021/12/24 09:42:41;;;;;;;4.10;2.17;;;22.50;45.70;;;;;;5010615;28;20200;-24
2021/12/24 09:45:09;;;;;;;4.60;2.63;;;22.70;45.50;;;;;;5013142;28;20196;-23
2021/12/24 09:47:35;;;;;;;4.20;2.07;;;22.70;45.30;;;;;;5012883;28;20208;-24
2021/12/24 09:50:01;;;;;;;3.07;2.10;;;22.80;45.20;;;;;;5011552;28;20220;-20
2021/12/24 09:52:27;;;;;;;8.67;2.80;;;23.00;45.00;;;;;;5011705;28;20203;-22
2021/12/24 09:54:53;;;;;;;2.63;2.40;;;23.00;45.00;;;;;;5010959;28;20192;-23
2021/12/24 09:57:20;;;;;;;4.07;2.53;;;23.00;44.90;;;;;;5011073;28;20193;-21
2021/12/24 09:59:45;;;;;;;3.73;2.60;;;23.10;44.90;;;;;;5010217;28;20224;-21
2021/12/24 10:02:17;;;;;;;5.43;2.70;;;22.90;45.00;;;;;;5011184;28;20189;-22
2021/12/24 10:04:44;;;;;;;9.47;2.90;;;22.80;45.20;;;;;;5012098;28;20192;-22
2021/12/24 10:07:13;;;;;;;4.80;2.60;;;22.80;45.30;;;;;;5011916;28;20577;-21
2021/12/24 10:09:41;;;;;;;7.20;2.97;;;22.80;45.40;;;;;;5011943;28;20216;-23
2021/12/24 10:12:17;;;;;;;10.10;3.20;;;22.70;45.30;;;;;;5009203;28;20639;-22
2021/12/24 10:14:57;;;;;;;5.40;2.73;;;22.60;45.60;;;;;;5011478;28;20287;-22
2021/12/24 10:17:32;;;;;;;5.60;3.37;;;22.40;45.80;;;;;;5025352;28;20577;-26
2021/12/24 10:20:00;;;;;;;7.80;2.93;;;22.20;46.00;;;;;;5022412;28;20207;-23
2021/12/24 10:22:25;;;;;;;6.37;3.37;;;22.20;46.30;;;;;;5028545;28;20210;-20
2021/12/24 10:25:07;;;;;;;4.27;3.00;;;22.00;46.40;;;;;;5009212;28;20196;-21
2021/12/24 10:27:34;;;;;;;9.50;3.77;;;22.00;46.50;;;;;;5010280;28;20203;-22
2021/12/24 10:30:29;;;;;;;6.37;3.17;;;21.90;46.80;;;;;;5008585;28;20209;-24
2021/12/24 10:32:57;;;;;;;6.77;3.30;;;21.70;47.10;;;;;;5006698;28;20215;-21
2021/12/24 10:35:30;;;;;;;6.23;3.23;;;21.60;47.30;;;;;;4977542;28;20466;-23
2021/12/24 10:38:28;;;;;;;7.43;3.27;;;21.50;47.40;;;;;;5032364;28;20254;-22
2021/12/24 10:40:59;;;;;;;9.27;3.13;;;21.50;47.50;;;;;;4992384;28;20256;-24
2021/12/24 10:43:43;;;;;;;7.00;3.10;;;21.40;47.70;;;;;;5012884;28;20230;-24
2021/12/24 10:46:13;;;;;;;8.47;3.70;;;21.30;48.00;;;;;;5008866;28;20199;-23
2021/12/24 10:48:47;;;;;;;8.50;3.93;;;21.10;48.50;;;;;;5008303;28;20176;-23
2021/12/24 10:51:21;;;;;;;8.17;3.40;;;21.00;48.80;;;;;;5008219;28;20684;-22
2021/12/24 10:54:06;;;;;;;8.63;3.47;;;21.00;48.80;;;;;;5006789;28;20218;-22
2021/12/24 10:56:32;;;;;;;6.73;3.77;;;21.10;48.90;;;;;;5005966;28;20284;-26
2021/12/24 10:58:58;;;;;;;6.53;3.23;;;21.20;48.90;;;;;;4993050;28;20444;-23
2021/12/24 11:01:24;;;;;;;7.40;3.80;;;21.40;48.60;;;;;;5008999;28;20203;-21
2021/12/24 11:03:50;;;;;;;8.67;3.60;;;21.50;48.40;;;;;;5011241;28;20479;-21
2021/12/24 11:06:16;;;;;;;7.07;3.30;;;21.60;48.30;;;;;;5010809;28;20226;-23
2021/12/24 11:08:43;;;;;;;9.50;3.60;;;21.70;48.00;;;;;;5008821;28;20205;-22
2021/12/24 11:11:15;;;;;;;6.93;3.80;;;21.80;47.90;;;;;;5010950;28;20247;-21
2021/12/24 11:13:43;;;;;;;7.67;3.40;;;22.00;47.80;;;;;;5012814;28;20209;-21
2021/12/24 11:16:14;;;;;;;8.43;3.90;;;22.00;47.60;;;;;;5015315;28;20196;-23
2021/12/24 11:18:45;;;;;;;9.37;3.73;;;22.10;47.60;;;;;;5031751;28;20628;-21
2021/12/24 11:21:17;;;;;;;5.90;3.73;;;22.10;47.50;;;;;;5016404;28;20679;-21
2021/12/24 11:23:43;;;;;;;7.03;3.57;;;22.20;47.40;;;;;;5011307;28;20222;-21
2021/12/24 11:26:27;;;;;;;6.00;3.33;;;22.20;47.40;;;;;;5026672;28;20267;-21
2021/12/24 11:28:54;;;;;;;7.60;3.57;;;22.20;47.30;;;;;;5010017;28;20203;-21
2021/12/24 11:31:24;;;;;;;8.73;3.57;;;22.20;47.40;;;;;;5010263;28;20376;-22
2021/12/24 11:33:54;;;;;;;8.60;4.00;;;22.30;47.30;;;;;;5010580;28;20185;-21
2021/12/24 11:36:23;;;;;;;19.67;9.20;;;22.20;47.40;;;;;;5025270;28;20197;-24
2021/12/24 11:38:52;;;;;;;26.00;13.97;;;22.20;47.40;;;;;;5009134;28;20353;-21
2021/12/24 11:41:20;;;;;;;48.73;21.20;;;22.20;47.50;;;;;;5026197;28;20244;-21
2021/12/24 11:43:48;;;;;;;53.27;23.83;;;22.10;47.50;;;;;;5026375;28;20296;-22
2021/12/24 11:46:16;;;;;;;50.33;22.87;;;21.90;47.60;;;;;;5013512;28;20203;-25
2021/12/24 11:48:44;;;;;;;49.90;23.87;;;21.90;47.80;;;;;;5035395;28;20203;-21
2021/12/24 11:51:16;;;;;;;51.97;23.37;;;21.80;48.40;;;;;;5034431;28;20221;-26
2021/12/24 11:53:43;;;;;;;48.50;23.00;;;21.80;48.10;;;;;;5026114;28;20205;-23
2021/12/24 11:56:12;;;;;;;43.17;21.53;;;21.80;48.00;;;;;;5033320;28;20204;-21
2021/12/24 11:58:53;;;;;;;49.17;22.90;;;21.80;48.10;;;;;;5015612;28;20197;-21
2021/12/24 12:01:21;;;;;;;43.07;21.57;;;21.70;48.20;;;;;;5012656;28;20227;-23
2021/12/24 12:03:51;;;;;;;42.53;20.03;;;21.50;48.40;;;;;;5014629;28;20216;-23
2021/12/24 12:06:17;;;;;;;44.73;20.83;;;21.50;48.60;;;;;;5013783;28;20185;-21
2021/12/24 12:08:44;;;;;;;41.17;20.47;;;21.30;48.90;;;;;;5015169;28;20200;-23
2021/12/24 12:11:24;;;;;;;42.40;20.17;;;21.00;49.20;;;;;;5013166;28;20220;-21
2021/12/24 12:13:55;;;;;;;40.90;19.63;;;20.90;49.70;;;;;;5013728;28;20213;-21
2021/12/24 12:16:28;;;;;;;39.93;18.67;;;20.60;50.00;;;;;;5015272;28;20203;-20
2021/12/24 12:24:57;;;;;;;35.10;17.30;;;20.00;51.60;;;;;;5015978;28;20661;-22
2021/12/24 12:27:38;;;;;;;36.87;17.23;;;19.90;52.00;;;;;;5015311;28;20197;-22
2021/12/24 12:30:27;;;;;;;32.43;15.97;;;19.70;52.40;;;;;;5011655;28;20201;-21
2021/12/24 12:33:12;;;;;;;33.97;15.90;;;19.60;52.60;;;;;;4990708;28;20241;-21
2021/12/24 12:35:38;;;;;;;31.70;15.40;;;19.60;53.00;;;;;;5010079;28;20192;-22
2021/12/24 12:38:40;;;;;;;29.20;14.20;;;19.90;52.70;;;;;;5010903;28;20214;-22
2021/12/24 12:41:48;;;;;;;33.40;14.87;;;20.60;51.50;;;;;;5009059;28;20190;-19
2021/12/24 12:44:15;;;;;;;26.60;13.07;;;21.60;49.90;;;;;;4965840;28;20200;-21
2021/12/24 12:46:43;;;;;;;24.67;12.00;;;22.60;48.20;;;;;;5015933;28;20493;-21
2021/12/24 12:49:11;;;;;;;26.07;11.93;;;23.50;46.80;;;;;;5008287;28;20203;-22
2021/12/24 12:51:49;;;;;;;22.47;12.33;;;24.00;45.80;;;;;;5008193;28;20490;-21
2021/12/24 12:54:33;;;;;;;21.67;10.37;;;24.20;45.30;;;;;;5008200;28;20281;-23
2021/12/24 12:57:25;;;;;;;20.30;10.03;;;24.30;45.10;;;;;;5011036;28;20181;-22
2021/12/24 13:00:10;;;;;;;21.73;10.17;;;24.10;45.10;;;;;;5009078;28;20216;-22
2021/12/24 13:03:01;;;;;;;20.47;10.00;;;24.00;45.20;;;;;;5008918;28;20201;-22
2021/12/24 13:05:43;;;;;;;20.13;10.30;;;24.00;45.30;;;;;;5010522;28;20213;-25
2021/12/24 13:08:19;;;;;;;16.00;8.53;;;24.00;45.30;;;;;;5008728;28;20638;-21
2021/12/24 13:11:06;;;;;;;15.57;8.27;;;23.90;45.40;;;;;;5009527;28;20274;-23
2021/12/24 13:13:52;;;;;;;20.33;8.70;;;23.70;45.50;;;;;;5008575;28;20197;-22
2021/12/24 13:16:21;;;;;;;16.80;8.43;;;23.40;45.90;;;;;;5010581;28;20292;-20
2021/12/24 13:18:59;;;;;;;15.90;7.90;;;23.30;46.10;;;;;;5010226;28;20239;-21
2021/12/24 13:24:13;;;;;;;15.33;7.80;;;22.90;47.00;;;;;;5010297;28;20204;-23
2021/12/24 13:26:40;;;;;;;15.87;7.13;;;22.60;47.00;;;;;;5010183;28;20596;-21
2021/12/24 13:29:12;;;;;;;15.60;7.40;;;22.40;47.30;;;;;;5010666;28;20282;-21
2021/12/24 13:31:40;;;;;;;13.43;7.00;;;22.10;47.70;;;;;;5008340;28;20209;-23
2021/12/24 13:34:13;;;;;;;18.37;7.10;;;21.90;48.10;;;;;;5008963;28;20196;-21
2021/12/24 13:36:39;;;;;;;13.20;7.27;;;21.50;48.60;;;;;;5010309;28;20216;-23
2021/12/24 13:39:16;;;;;;;12.63;6.83;;;21.30;49.20;;;;;;5009038;28;20201;-20
2021/12/24 13:41:45;;;;;;;12.47;6.47;;;21.10;49.70;;;;;;5008977;28;20205;-23
2021/12/24 13:44:25;;;;;;;13.53;6.20;;;20.90;50.10;;;;;;5009193;28;20210;-22
2021/12/24 13:47:13;;;;;;;11.77;6.23;;;20.70;51.00;;;;;;5010405;28;20306;-23
2021/12/24 13:55:41;;;;;;;12.70;5.93;;;20.20;51.60;;;;;;4993136;28;20448;-24
2021/12/24 13:58:10;;;;;;;9.00;5.50;;;20.10;52.10;;;;;;5014224;28;20234;-25
2021/12/24 14:00:45;;;;;;;11.97;5.77;;;20.00;52.30;;;;;;5014037;28;20344;-25
2021/12/24 14:03:11;;;;;;;10.73;6.00;;;19.90;52.50;;;;;;5011528;28;20209;-24
2021/12/24 14:05:47;;;;;;;11.50;6.23;;;19.80;52.70;;;;;;5013509;28;20201;-22
2021/12/24 14:08:21;;;;;;;8.70;4.90;;;20.00;52.80;;;;;;5011746;28;20227;-21
2021/12/24 14:10:49;;;;;;;9.10;5.43;;;20.60;51.60;;;;;;5013827;28;20697;-21
2021/12/24 14:13:28;;;;;;;9.77;5.10;;;21.20;50.60;;;;;;5013873;28;20316;-22
2021/12/24 14:18:32;;;;;;;9.27;4.73;;;23.10;47.40;;;;;;5014046;28;20220;-23
2021/12/24 14:21:45;;;;;;;7.60;4.30;;;23.60;46.30;;;;;;5013269;28;20211;-23
2021/12/24 14:24:05;;;;;;;9.10;5.07;;;24.10;45.70;;;;;;5018282;28;20201;-21
2021/12/24 14:26:35;;;;;;;8.00;4.20;;;24.30;45.10;;;;;;5018550;28;20262;-23
2021/12/24 14:29:07;;;;;;;8.10;4.93;;;24.30;44.90;;;;;;5037869;28;20188;-23
2021/12/24 14:31:59;;;;;;;9.03;4.43;;;24.40;44.90;;;;;;5037634;28;20222;-24
2021/12/24 14:34:53;;;;;;;7.17;4.20;;;24.20;44.90;;;;;;5032760;28;20197;-23
2021/12/24 14:37:27;;;;;;;7.10;4.10;;;24.00;45.10;;;;;;5017282;28;20201;-23
2021/12/24 14:39:59;;;;;;;8.40;4.20;;;23.80;45.30;;;;;;5016697;28;20200;-23
2021/12/24 14:42:27;;;;;;;7.47;3.90;;;23.60;45.50;;;;;;5013583;28;20681;-23